createdAt,value
2019-02-23T00:00:19.633Z,99.90
2019-02-23T00:03:18.189Z,99.90
2019-02-23T00:06:02.651Z,99.90
2019-02-23T00:08:47.636Z,99.90
2019-02-23T00:11:31.884Z,99.90
2019-02-23T00:14:16.464Z,99.80
2019-02-23T00:17:02.154Z,99.80
2019-02-23T00:19:46.407Z,99.70
2019-02-23T00:22:30.648Z,99.40
2019-02-23T00:25:14.999Z,99.00
2019-02-23T00:27:58.982Z,98.90
2019-02-23T00:30:42.753Z,98.60
2019-02-23T00:33:26.801Z,99.00
2019-02-23T00:36:11.456Z,99.20
2019-02-23T00:38:57.897Z,99.00
2019-02-23T00:41:41.672Z,99.10
2019-02-23T00:44:29.892Z,99.00
2019-02-23T00:47:14.374Z,99.10
2019-02-23T00:49:58.981Z,99.40
2019-02-23T00:52:42.811Z,99.10
2019-02-23T00:55:27.333Z,99.10
2019-02-23T00:58:11.624Z,99.20
2019-02-23T01:00:56.443Z,99.30
2019-02-23T01:03:42.304Z,98.90
2019-02-23T01:06:28.014Z,99.00
2019-02-23T01:09:11.665Z,99.00
2019-02-23T01:11:55.447Z,99.40
2019-02-23T01:14:40.188Z,99.40
2019-02-23T01:17:24.813Z,99.30
2019-02-23T01:20:09.586Z,99.30
2019-02-23T01:22:54.013Z,99.30
2019-02-23T01:25:38.904Z,99.20
2019-02-23T01:28:23.571Z,99.10
2019-02-23T01:31:08.079Z,99.10
2019-02-23T01:33:51.828Z,99.10
2019-02-23T01:36:35.925Z,98.90
2019-02-23T01:39:20.799Z,99.00
2019-02-23T01:42:04.757Z,98.90
2019-02-23T01:44:48.568Z,98.90
2019-02-23T01:47:32.661Z,99.10
2019-02-23T01:50:16.376Z,99.00
2019-02-23T01:53:02.507Z,99.20
2019-02-23T01:55:46.406Z,99.10
2019-02-23T01:58:31.385Z,99.10
2019-02-23T02:01:15.718Z,99.60
2019-02-23T02:04:01.761Z,99.50
2019-02-23T02:06:45.885Z,99.50
2019-02-23T02:09:30.145Z,99.70
2019-02-23T02:12:17.497Z,99.50
2019-02-23T02:15:01.564Z,99.50
2019-02-23T02:17:47.525Z,99.90
2019-02-23T02:20:33.344Z,99.90
2019-02-23T02:23:17.520Z,99.80
2019-02-23T02:26:01.471Z,99.90
2019-02-23T02:28:34.175Z,99.80
2019-02-23T02:31:18.354Z,99.80
2019-02-23T02:34:08.624Z,99.90
2019-02-23T02:36:52.447Z,99.90
2019-02-23T02:39:36.209Z,99.90
2019-02-23T02:42:21.025Z,99.90
2019-02-23T02:45:06.073Z,99.90
2019-02-23T02:47:52.386Z,99.90
2019-02-23T02:50:36.952Z,99.90
2019-02-23T02:53:21.087Z,99.90
2019-02-23T02:56:05.160Z,99.90
2019-02-23T02:58:49.584Z,99.90
2019-02-23T03:01:33.435Z,99.90
2019-02-23T03:04:19.432Z,99.90
2019-02-23T03:07:03.474Z,99.90
2019-02-23T03:09:47.998Z,99.90
2019-02-23T03:12:31.694Z,99.90
2019-02-23T03:15:15.634Z,99.90
2019-02-23T03:18:02.373Z,99.90
2019-02-23T03:20:46.581Z,99.90
2019-02-23T03:23:33.696Z,99.90
2019-02-23T03:26:17.715Z,99.90
2019-02-23T03:29:02.057Z,99.90
2019-02-23T03:31:46.223Z,99.90
2019-02-23T03:34:30.467Z,99.90
2019-02-23T03:37:14.387Z,99.90
2019-02-23T03:39:58.838Z,99.90
2019-02-23T03:42:43.032Z,99.90
2019-02-23T03:45:27.333Z,99.90
2019-02-23T03:48:11.380Z,99.90
2019-02-23T03:50:55.959Z,99.90
2019-02-23T03:53:41.772Z,99.90
2019-02-23T03:56:25.807Z,99.90
2019-02-23T03:59:12.831Z,99.90
2019-02-23T04:01:57.174Z,99.90
2019-02-23T04:04:40.944Z,99.90
2019-02-23T04:07:26.109Z,99.90
2019-02-23T04:10:09.855Z,99.90
2019-02-23T04:12:54.257Z,99.90
2019-02-23T04:15:26.453Z,99.90
2019-02-23T04:18:12.911Z,99.90
2019-02-23T04:21:01.767Z,99.90
2019-02-23T04:23:44.259Z,99.90
2019-02-23T04:26:29.727Z,99.90
2019-02-23T04:29:02.605Z,99.90
2019-02-23T04:31:47.117Z,99.90
2019-02-23T04:34:33.950Z,99.90
2019-02-23T04:37:20.252Z,99.90
2019-02-23T04:40:06.593Z,99.90
2019-02-23T04:42:50.444Z,99.90
2019-02-23T04:45:34.541Z,99.90
2019-02-23T04:48:18.604Z,99.90
2019-02-23T04:51:13.949Z,99.90
2019-02-23T04:53:38.286Z,99.90
2019-02-23T04:56:22.885Z,99.90
2019-02-23T05:01:53.500Z,99.90
2019-02-23T05:04:37.949Z,99.90
2019-02-23T05:07:23.091Z,99.90
2019-02-23T05:10:09.409Z,99.90
2019-02-23T05:12:53.223Z,99.90
2019-02-23T05:15:37.449Z,99.90
2019-02-23T05:18:23.525Z,99.90
2019-02-23T05:21:07.403Z,99.90
2019-02-23T05:23:51.290Z,99.90
2019-02-23T05:26:23.763Z,99.90
2019-02-23T05:29:08.721Z,99.90
2019-02-23T05:31:54.138Z,99.90
2019-02-23T05:34:37.690Z,99.90
2019-02-23T05:37:22.118Z,99.90
2019-02-23T05:40:09.065Z,99.90
2019-02-23T05:43:01.060Z,99.90
2019-02-23T05:45:39.378Z,99.90
2019-02-23T05:48:27.460Z,99.90
2019-02-23T05:51:11.878Z,99.90
2019-02-23T05:53:56.097Z,99.90
2019-02-23T05:56:40.097Z,99.90
2019-02-23T05:59:25.501Z,99.90
2019-02-23T06:02:11.386Z,99.90
2019-02-23T06:04:55.462Z,99.90
2019-02-23T06:07:39.016Z,99.90
2019-02-23T06:10:25.304Z,99.90
2019-02-23T06:13:10.079Z,99.90
2019-02-23T06:15:55.299Z,99.90
2019-02-23T06:18:39.850Z,99.90
2019-02-23T06:21:13.179Z,99.90
2019-02-23T06:23:56.873Z,99.90
2019-02-23T06:26:40.605Z,99.90
2019-02-23T06:29:24.570Z,99.90
2019-02-23T06:32:08.351Z,99.90
2019-02-23T06:34:53.188Z,99.90
2019-02-23T06:37:38.446Z,99.90
2019-02-23T06:40:23.129Z,99.90
2019-02-23T06:43:07.143Z,99.90
2019-02-23T06:45:51.033Z,99.90
2019-02-23T06:48:35.927Z,99.90
2019-02-23T06:51:20.306Z,99.90
2019-02-23T06:54:04.887Z,99.90
2019-02-23T06:56:49.415Z,99.90
2019-02-23T06:59:35.733Z,99.90
2019-02-23T07:02:21.332Z,99.90
2019-02-23T07:05:05.708Z,99.90
2019-02-23T07:07:38.409Z,99.90
2019-02-23T07:10:22.401Z,99.90
2019-02-23T07:13:06.723Z,99.90
2019-02-23T07:15:39.657Z,99.90
2019-02-23T07:18:26.327Z,99.90
2019-02-23T07:21:10.303Z,99.90
2019-02-23T07:23:54.919Z,99.90
2019-02-23T07:26:39.081Z,99.90
2019-02-23T07:29:24.585Z,99.90
2019-02-23T07:32:08.692Z,99.90
2019-02-23T07:34:52.677Z,99.90
2019-02-23T07:37:36.913Z,99.90
2019-02-23T07:40:22.237Z,99.90
2019-02-23T07:43:06.842Z,99.90
2019-02-23T07:45:51.822Z,99.90
2019-02-23T07:48:36.761Z,99.90
2019-02-23T07:51:09.162Z,99.90
2019-02-23T07:53:53.566Z,99.30
2019-02-23T07:56:26.142Z,99.90
2019-02-23T07:59:10.088Z,99.70
2019-02-23T08:01:53.822Z,99.90
2019-02-23T08:04:37.465Z,99.90
2019-02-23T08:07:10.350Z,99.90
2019-02-23T08:09:42.860Z,99.90
2019-02-23T08:12:26.818Z,99.90
2019-02-23T08:15:11.336Z,99.90
2019-02-23T08:17:44.233Z,99.90
2019-02-23T08:20:28.784Z,99.90
2019-02-23T08:23:12.606Z,99.90
2019-02-23T08:25:57.312Z,99.90
2019-02-23T08:28:41.579Z,99.90
2019-02-23T08:31:26.503Z,99.90
2019-02-23T08:34:10.507Z,99.90
2019-02-23T08:36:54.024Z,99.80
2019-02-23T08:39:40.005Z,99.40
2019-02-23T08:42:24.011Z,99.40
2019-02-23T08:45:11.855Z,98.80
2019-02-23T08:47:56.498Z,98.90
2019-02-23T08:50:40.893Z,98.70
2019-02-23T08:53:25.204Z,98.80
2019-02-23T08:56:09.395Z,99.10
2019-02-23T08:58:53.497Z,98.30
2019-02-23T09:01:37.427Z,99.00
2019-02-23T09:04:22.689Z,97.80
2019-02-23T09:07:06.440Z,97.30
2019-02-23T09:09:50.305Z,97.40
2019-02-23T09:12:34.800Z,97.70
2019-02-23T09:15:18.524Z,96.90
2019-02-23T09:18:02.076Z,96.60
2019-02-23T09:20:46.937Z,97.10
2019-02-23T09:23:20.153Z,97.10
2019-02-23T09:26:04.350Z,96.30
2019-02-23T09:28:48.540Z,96.20
2019-02-23T09:31:21.222Z,95.80
2019-02-23T09:33:54.064Z,96.80
2019-02-23T09:36:38.494Z,95.90
2019-02-23T09:39:23.290Z,95.70
2019-02-23T09:42:07.052Z,95.30
2019-02-23T09:44:54.838Z,94.80
2019-02-23T09:47:41.429Z,93.60
2019-02-23T09:50:25.776Z,94.10
2019-02-23T09:53:11.687Z,94.10
2019-02-23T09:55:56.320Z,93.60
2019-02-23T09:58:41.035Z,93.70
2019-02-23T10:01:25.690Z,93.40
2019-02-23T10:04:10.139Z,92.70
2019-02-23T10:06:54.346Z,92.70
2019-02-23T10:09:38.180Z,92.80
2019-02-23T10:12:22.171Z,91.90
2019-02-23T10:15:06.724Z,90.80
2019-02-23T10:17:51.392Z,93.10
2019-02-23T10:20:23.670Z,90.80
2019-02-23T10:23:07.590Z,92.20
2019-02-23T10:25:52.481Z,89.60
2019-02-23T10:28:36.005Z,91.30
2019-02-23T10:31:20.574Z,90.90
2019-02-23T10:33:52.987Z,90.50
2019-02-23T10:36:36.958Z,89.50
2019-02-23T10:39:21.852Z,83.30
2019-02-23T10:42:06.192Z,90.70
2019-02-23T10:44:49.835Z,87.30
2019-02-23T10:47:35.369Z,90.30
2019-02-23T10:50:19.710Z,91.00
2019-02-23T10:53:03.900Z,88.40
2019-02-23T10:55:49.841Z,87.40
2019-02-23T10:58:34.529Z,87.90
2019-02-23T11:01:18.244Z,83.10
2019-02-23T11:04:01.989Z,81.90
2019-02-23T11:06:46.457Z,88.70
2019-02-23T11:09:33.864Z,83.30
2019-02-23T11:12:18.734Z,83.10
2019-02-23T11:15:02.920Z,87.50
2019-02-23T11:17:48.677Z,85.90
2019-02-23T11:20:33.178Z,84.70
2019-02-23T11:23:17.599Z,82.30
2019-02-23T11:26:01.958Z,84.00
2019-02-23T11:28:46.488Z,82.00
2019-02-23T11:31:32.581Z,81.70
2019-02-23T11:34:16.544Z,79.90
2019-02-23T11:37:01.153Z,73.80
2019-02-23T11:39:52.745Z,78.60
2019-02-23T11:42:36.527Z,79.30
2019-02-23T11:45:09.011Z,81.00
2019-02-23T11:47:53.079Z,79.10
2019-02-23T11:50:38.784Z,77.80
2019-02-23T11:53:12.063Z,77.60
2019-02-23T11:55:56.298Z,75.00
2019-02-23T11:58:40.489Z,77.80
2019-02-23T12:01:26.761Z,76.80
2019-02-23T12:04:10.502Z,77.90
2019-02-23T12:06:56.806Z,76.50
2019-02-23T12:09:42.783Z,76.70
2019-02-23T12:12:26.598Z,74.80
2019-02-23T12:15:11.108Z,77.70
2019-02-23T12:17:54.938Z,77.90
2019-02-23T12:20:38.406Z,78.10
2019-02-23T12:23:22.055Z,76.00
2019-02-23T12:26:06.962Z,77.10
2019-02-23T12:28:52.709Z,76.40
2019-02-23T12:31:40.918Z,75.20
2019-02-23T12:34:25.459Z,76.20
2019-02-23T12:37:09.728Z,75.50
2019-02-23T12:39:55.015Z,74.70
2019-02-23T12:42:39.090Z,76.30
2019-02-23T12:45:23.641Z,77.10
2019-02-23T12:48:07.837Z,74.00
2019-02-23T12:50:51.471Z,76.40
2019-02-23T12:53:23.945Z,76.20
2019-02-23T12:56:08.570Z,76.70
2019-02-23T12:58:52.500Z,76.20
2019-02-23T13:01:36.311Z,75.80
2019-02-23T13:04:20.456Z,75.20
2019-02-23T13:07:07.443Z,74.10
2019-02-23T13:09:52.485Z,75.20
2019-02-23T13:12:56.604Z,77.70
2019-02-23T13:19:02.349Z,77.00
2019-02-23T13:21:52.013Z,75.40
2019-02-23T13:24:56.730Z,77.10
2019-02-23T13:28:01.573Z,77.90
2019-02-23T13:31:07.385Z,75.10
2019-02-23T13:33:59.990Z,73.00
2019-02-23T13:40:52.818Z,72.00
2019-02-23T13:43:57.199Z,63.80
2019-02-23T13:50:22.150Z,67.70
2019-02-23T13:53:09.411Z,64.80
2019-02-23T13:56:14.628Z,66.80
2019-02-23T13:59:11.179Z,63.30
2019-02-23T14:02:15.184Z,59.40
2019-02-23T14:08:29.493Z,58.10
2019-02-23T14:11:59.331Z,64.30
2019-02-23T14:15:05.886Z,66.10
2019-02-23T14:18:07.919Z,63.40
2019-02-23T14:24:53.797Z,65.90
2019-02-23T14:27:58.563Z,60.70
2019-02-23T14:31:03.649Z,66.60
2019-02-23T14:34:12.836Z,65.90
2019-02-23T14:40:24.951Z,63.80
2019-02-23T14:43:31.407Z,65.70
2019-02-23T14:46:34.613Z,67.80
2019-02-23T14:49:32.650Z,70.20
2019-02-23T14:52:49.528Z,67.90
2019-02-23T14:55:54.285Z,70.00
2019-02-23T14:58:43.156Z,68.00
2019-02-23T15:01:47.297Z,68.20
2019-02-23T15:04:55.484Z,69.50
2019-02-23T15:08:01.903Z,70.60
2019-02-23T15:11:06.863Z,70.30
2019-02-23T15:14:13.691Z,71.60
2019-02-23T15:17:20.860Z,72.30
2019-02-23T15:20:24.761Z,75.50
2019-02-23T15:23:14.851Z,76.10
2019-02-23T15:26:23.839Z,72.40
2019-02-23T15:29:30.740Z,72.60
2019-02-23T15:32:36.165Z,72.30
2019-02-23T15:35:41.689Z,70.30
2019-02-23T15:38:37.461Z,74.30
2019-02-23T15:41:43.634Z,73.50
2019-02-23T15:44:50.235Z,73.50
2019-02-23T15:47:59.334Z,71.30
2019-02-23T15:50:44.532Z,70.00
2019-02-23T15:53:28.398Z,78.10
2019-02-23T15:56:12.726Z,74.00
2019-02-23T15:58:56.748Z,72.60
2019-02-23T16:01:41.634Z,72.20
2019-02-23T16:04:25.725Z,74.70
2019-02-23T16:07:09.647Z,74.50
2019-02-23T16:09:53.799Z,78.60
2019-02-23T16:12:37.718Z,76.80
2019-02-23T16:15:21.750Z,76.50
2019-02-23T16:18:05.596Z,78.30
2019-02-23T16:20:49.544Z,80.00
2019-02-23T16:23:35.548Z,79.90
2019-02-23T16:26:20.455Z,80.30
2019-02-23T16:29:06.234Z,78.60
2019-02-23T16:31:51.334Z,77.60
2019-02-23T16:34:36.675Z,78.80
2019-02-23T16:37:20.653Z,78.30
2019-02-23T16:40:05.294Z,82.90
2019-02-23T16:42:48.864Z,82.90
2019-02-23T16:45:33.541Z,82.90
2019-02-23T16:48:17.881Z,85.00
2019-02-23T16:51:01.734Z,86.00
2019-02-23T16:53:48.869Z,86.80
2019-02-23T16:56:31.558Z,86.40
2019-02-23T16:59:17.321Z,87.50
2019-02-23T17:02:01.465Z,90.30
2019-02-23T17:04:53.495Z,89.00
2019-02-23T17:07:31.654Z,89.10
2019-02-23T17:10:16.097Z,88.90
2019-02-23T17:18:28.951Z,89.80
2019-02-23T17:21:15.431Z,90.30
2019-02-23T17:24:01.340Z,90.70
2019-02-23T17:26:45.489Z,90.90
2019-02-23T17:29:28.989Z,90.80
2019-02-23T17:32:15.199Z,90.90
2019-02-23T17:34:59.308Z,90.80
2019-02-23T17:37:44.918Z,91.20
2019-02-23T17:40:28.779Z,91.10
2019-02-23T17:46:23.635Z,91.40
2019-02-23T17:49:08.244Z,91.40
2019-02-23T17:51:52.493Z,91.50
2019-02-23T17:54:36.469Z,91.40
2019-02-23T17:57:21.138Z,91.60
2019-02-23T18:00:07.746Z,91.70
2019-02-23T18:02:53.923Z,92.10
2019-02-23T18:05:38.507Z,91.90
2019-02-23T18:08:23.477Z,91.80
2019-02-23T18:11:07.815Z,91.80
2019-02-23T18:16:36.367Z,90.80
2019-02-23T18:19:21.138Z,90.90
2019-02-23T18:22:05.036Z,91.10
2019-02-23T18:24:49.514Z,91.30
2019-02-23T18:27:22.025Z,91.40
2019-02-23T18:30:12.334Z,91.60
2019-02-23T18:32:52.370Z,91.60
2019-02-23T18:35:36.611Z,91.90
2019-02-23T18:38:20.392Z,91.40
2019-02-23T18:40:52.677Z,91.80
2019-02-23T18:43:37.390Z,90.70
2019-02-23T18:46:21.523Z,90.80
2019-02-23T18:49:06.232Z,91.00
2019-02-23T18:51:50.909Z,90.70
2019-02-23T18:54:34.648Z,90.70
2019-02-23T18:57:18.483Z,90.40
2019-02-23T19:00:02.519Z,90.80
2019-02-23T19:02:48.759Z,91.00
2019-02-23T19:05:33.108Z,90.00
2019-02-23T19:08:17.796Z,90.80
2019-02-23T19:10:49.995Z,91.10
2019-02-23T19:13:51.466Z,90.80
2019-02-23T19:16:35.362Z,91.40
2019-02-23T19:19:19.474Z,90.90
2019-02-23T19:22:03.407Z,91.10
2019-02-23T19:24:47.251Z,91.10
2019-02-23T19:30:11.563Z,91.30
2019-02-23T19:32:57.518Z,91.20
2019-02-23T19:35:42.027Z,91.80
2019-02-23T19:38:27.283Z,91.50
2019-02-23T19:41:11.915Z,91.30
2019-02-23T19:43:56.150Z,91.20
2019-02-23T19:46:43.354Z,91.10
2019-02-23T19:49:27.683Z,91.40
2019-02-23T19:52:13.384Z,99.90
2019-02-23T19:54:57.664Z,90.20
2019-02-23T19:57:41.394Z,90.50
2019-02-23T20:00:26.504Z,90.10
2019-02-23T20:03:11.278Z,90.70
2019-02-23T20:05:56.646Z,90.90
2019-02-23T20:08:41.256Z,91.60
2019-02-23T20:11:13.563Z,91.20
2019-02-23T20:14:04.691Z,91.10
2019-02-23T20:16:37.228Z,91.20
2019-02-23T20:19:10.677Z,91.20
2019-02-23T20:21:54.863Z,91.40
2019-02-23T20:24:41.119Z,91.50
2019-02-23T20:27:25.975Z,93.90
2019-02-23T20:30:10.173Z,92.30
2019-02-23T20:32:54.216Z,92.50
2019-02-23T20:35:39.513Z,93.00
2019-02-23T20:38:23.928Z,92.60
2019-02-23T20:41:09.402Z,92.30
2019-02-23T20:43:53.086Z,92.50
2019-02-23T20:46:38.239Z,92.30
2019-02-23T20:49:23.048Z,91.90
2019-02-23T20:51:55.385Z,91.90
2019-02-23T20:54:41.821Z,91.70
2019-02-23T20:57:26.471Z,91.70
2019-02-23T21:00:12.916Z,91.60
2019-02-23T21:02:53.347Z,91.70
2019-02-23T21:05:37.538Z,91.80
2019-02-23T21:08:22.227Z,92.20
2019-02-23T21:11:11.039Z,92.40
2019-02-23T21:13:55.628Z,91.90
2019-02-23T21:16:41.027Z,92.20
2019-02-23T21:19:26.027Z,92.30
2019-02-23T21:22:10.356Z,91.30
2019-02-23T21:24:56.466Z,91.30
2019-02-23T21:27:40.277Z,91.30
2019-02-23T21:30:24.135Z,91.60
2019-02-23T21:33:09.363Z,91.80
2019-02-23T21:35:53.889Z,91.60
2019-02-23T21:38:38.514Z,92.00
2019-02-23T21:41:23.143Z,91.30
2019-02-23T21:44:07.068Z,91.90
2019-02-23T21:46:51.872Z,91.40
2019-02-23T21:49:36.881Z,91.80
2019-02-23T21:52:22.610Z,91.60
2019-02-23T21:55:07.322Z,91.90
2019-02-23T21:57:51.961Z,91.70
2019-02-23T22:00:37.580Z,91.70
2019-02-23T22:03:22.843Z,91.70
2019-02-23T22:06:08.008Z,92.00
2019-02-23T22:08:54.645Z,92.10
2019-02-23T22:11:39.616Z,92.40
2019-02-23T22:14:24.070Z,92.40
2019-02-23T22:17:08.623Z,92.80
2019-02-23T22:19:53.284Z,92.90
2019-02-23T22:22:37.915Z,92.60
2019-02-23T22:25:12.021Z,92.80
2019-02-23T22:27:59.689Z,92.80
2019-02-23T22:30:44.305Z,94.80
2019-02-23T22:36:33.968Z,93.00
2019-02-23T22:39:18.934Z,92.90
2019-02-23T22:42:04.051Z,93.00
2019-02-23T22:44:48.592Z,93.10
2019-02-23T22:47:22.351Z,93.60
2019-02-23T22:50:08.522Z,93.90
2019-02-23T22:55:40.595Z,94.00
2019-02-23T22:58:24.507Z,94.90
2019-02-23T23:01:03.104Z,94.30
2019-02-23T23:03:50.163Z,94.90
2019-02-23T23:06:53.972Z,94.40
2019-02-23T23:09:38.032Z,95.30
2019-02-23T23:12:23.770Z,94.20
2019-02-23T23:15:08.617Z,94.00
2019-02-23T23:17:54.571Z,94.30
2019-02-23T23:20:39.633Z,94.10
2019-02-23T23:23:13.267Z,94.00
2019-02-23T23:25:57.946Z,93.90
2019-02-23T23:28:43.904Z,94.20
2019-02-23T23:31:30.579Z,94.60
2019-02-23T23:34:15.294Z,94.50
2019-02-23T23:36:59.353Z,94.40
2019-02-23T23:39:43.561Z,94.30
2019-02-23T23:42:27.413Z,94.20
2019-02-23T23:45:11.905Z,94.60
2019-02-23T23:47:56.280Z,94.40
2019-02-23T23:50:40.796Z,94.80
2019-02-23T23:53:24.930Z,95.50
2019-02-23T23:56:09.089Z,94.80
2019-02-23T23:58:53.690Z,94.80
